createdAt,value
2022-08-23T00:02:42.762Z,82
2022-08-23T00:06:07.761Z,82
2022-08-23T00:09:32.983Z,82
2022-08-23T00:12:58.235Z,82
2022-08-23T00:16:23.507Z,82
2022-08-23T00:19:48.801Z,82
2022-08-23T00:23:14.064Z,83
2022-08-23T00:26:39.298Z,82
2022-08-23T00:30:04.551Z,81
2022-08-23T00:33:29.777Z,81
2022-08-23T00:36:55.045Z,81
2022-08-23T00:40:20.331Z,81
2022-08-23T00:43:45.501Z,81
2022-08-23T00:47:10.732Z,81
2022-08-23T00:50:35.955Z,81
2022-08-23T00:54:01.190Z,81
2022-08-23T00:57:26.430Z,81
2022-08-23T01:00:51.647Z,81
2022-08-23T01:04:16.943Z,81
2022-08-23T01:07:42.159Z,82
2022-08-23T01:11:08.782Z,82
2022-08-23T01:14:32.609Z,82
2022-08-23T01:17:57.832Z,81
2022-08-23T01:21:23.071Z,81
2022-08-23T01:24:59.963Z,82
2022-08-23T01:28:13.579Z,81
2022-08-23T01:31:38.828Z,81
2022-08-23T01:35:04.055Z,82
2022-08-23T01:38:30.363Z,81
2022-08-23T01:41:54.554Z,82
2022-08-23T01:45:19.745Z,81
2022-08-23T01:48:44.980Z,81
2022-08-23T01:52:10.229Z,80
2022-08-23T01:55:35.465Z,80
2022-08-23T01:59:00.697Z,80
2022-08-23T02:02:25.979Z,79
2022-08-23T02:09:17.600Z,78
2022-08-23T02:12:41.726Z,79
2022-08-23T02:16:06.963Z,80
2022-08-23T02:19:32.222Z,78
2022-08-23T02:22:57.496Z,79
2022-08-23T02:26:30.717Z,79
2022-08-23T02:29:47.974Z,79
2022-08-23T02:33:13.174Z,79
2022-08-23T02:36:56.540Z,79
2022-08-23T02:40:21.996Z,79
2022-08-23T02:43:47.429Z,79
2022-08-23T02:47:12.877Z,80
2022-08-23T02:50:38.327Z,81
2022-08-23T02:54:03.761Z,80
2022-08-23T02:57:30.983Z,81
2022-08-23T03:00:54.679Z,81
2022-08-23T03:04:20.144Z,81
2022-08-23T03:07:45.586Z,81
2022-08-23T03:11:11.012Z,81
2022-08-23T03:14:36.444Z,81
2022-08-23T03:18:02.241Z,81
2022-08-23T03:21:27.369Z,81
2022-08-23T03:24:52.782Z,81
2022-08-23T03:28:18.198Z,82
2022-08-23T03:31:43.509Z,82
2022-08-23T03:35:11.050Z,82
2022-08-23T03:38:33.884Z,82
2022-08-23T03:41:59.131Z,82
2022-08-23T03:45:24.330Z,81
2022-08-23T03:48:49.564Z,81
2022-08-23T03:52:14.791Z,82
2022-08-23T03:55:42.353Z,82
2022-08-23T03:59:05.746Z,82
2022-08-23T04:02:30.722Z,82
2022-08-23T04:05:55.932Z,82
2022-08-23T04:09:21.133Z,83
2022-08-23T04:12:46.340Z,83
2022-08-23T04:16:11.491Z,83
2022-08-23T04:19:36.688Z,82
2022-08-23T04:23:01.895Z,82
2022-08-23T04:26:30.135Z,81
2022-08-23T04:29:52.302Z,80
2022-08-23T04:33:18.138Z,81
2022-08-23T04:36:44.779Z,81
2022-08-23T04:40:07.925Z,81
2022-08-23T04:43:33.045Z,82
2022-08-23T04:46:58.233Z,82
2022-08-23T04:50:23.420Z,82
2022-08-23T04:53:48.658Z,82
2022-08-23T04:57:13.835Z,82
2022-08-23T05:00:39.030Z,83
2022-08-23T05:04:04.170Z,83
2022-08-23T05:07:30.900Z,83
2022-08-23T05:10:54.558Z,83
2022-08-23T05:14:19.710Z,83
2022-08-23T05:17:44.898Z,81
2022-08-23T05:21:10.074Z,81
2022-08-23T05:24:35.847Z,83
2022-08-23T05:28:01.206Z,83
2022-08-23T05:31:26.187Z,82
2022-08-23T05:34:51.364Z,82
2022-08-23T05:38:20.204Z,81
2022-08-23T05:41:41.740Z,81
2022-08-23T05:45:06.920Z,81
2022-08-23T05:48:32.096Z,80
2022-08-23T05:51:57.275Z,80
2022-08-23T05:55:23.560Z,80
2022-08-23T05:58:47.675Z,80
2022-08-23T06:02:12.845Z,80
2022-08-23T06:05:38.071Z,80
2022-08-23T06:09:03.262Z,80
2022-08-23T06:12:28.433Z,80
2022-08-23T06:15:53.605Z,80
2022-08-23T06:19:18.782Z,79
2022-08-23T06:22:43.945Z,78
2022-08-23T06:26:09.182Z,79
2022-08-23T06:29:34.386Z,78
2022-08-23T06:32:59.534Z,78
2022-08-23T06:36:24.703Z,78
2022-08-23T06:39:49.946Z,79
2022-08-23T06:43:15.034Z,80
2022-08-23T06:46:40.314Z,79
2022-08-23T06:50:05.424Z,79
2022-08-23T06:53:30.646Z,79
2022-08-23T06:56:55.855Z,80
2022-08-23T07:00:22.408Z,80
2022-08-23T07:03:46.261Z,81
2022-08-23T07:07:12.234Z,81
2022-08-23T07:10:37.627Z,81
2022-08-23T07:14:02.807Z,81
2022-08-23T07:17:28.000Z,81
2022-08-23T07:20:53.241Z,82
2022-08-23T07:24:18.442Z,82
2022-08-23T07:27:43.614Z,81
2022-08-23T07:31:12.407Z,81
2022-08-23T07:34:34.079Z,81
2022-08-23T07:37:59.353Z,81
2022-08-23T07:41:24.447Z,80
2022-08-23T07:44:49.653Z,80
2022-08-23T07:48:18.101Z,78
2022-08-23T07:51:40.058Z,80
2022-08-23T07:55:05.254Z,79
2022-08-23T07:58:30.446Z,79
2022-08-23T08:01:55.735Z,78
2022-08-23T08:05:21.824Z,77
2022-08-23T08:08:46.015Z,77
2022-08-23T08:12:11.215Z,78
2022-08-23T08:15:36.462Z,78
2022-08-23T08:19:01.656Z,77
2022-08-23T08:22:26.875Z,76
2022-08-23T08:25:52.064Z,77
2022-08-23T08:29:17.276Z,76
2022-08-23T08:32:47.159Z,74
2022-08-23T08:36:07.687Z,75
2022-08-23T08:39:33.697Z,75
2022-08-23T08:42:58.146Z,75
2022-08-23T08:46:23.352Z,74
2022-08-23T08:49:48.445Z,74
2022-08-23T08:53:13.626Z,74
2022-08-23T08:56:38.831Z,74
2022-08-23T09:00:04.075Z,74
2022-08-23T09:03:29.367Z,75
2022-08-23T09:06:54.478Z,75
2022-08-23T09:10:19.664Z,75
2022-08-23T09:13:46.217Z,75
2022-08-23T09:17:10.076Z,75
2022-08-23T09:20:35.293Z,76
2022-08-23T09:24:01.332Z,75
2022-08-23T09:27:26.699Z,75
2022-08-23T09:30:50.925Z,75
2022-08-23T09:34:16.109Z,75
2022-08-23T09:37:41.318Z,74
2022-08-23T09:41:06.497Z,74
2022-08-23T09:44:31.732Z,74
2022-08-23T09:47:57.014Z,74
2022-08-23T09:51:22.175Z,73
2022-08-23T09:54:47.729Z,73
2022-08-23T09:58:12.608Z,72
2022-08-23T10:01:39.195Z,72
2022-08-23T10:05:03.141Z,71
2022-08-23T10:08:28.277Z,71
2022-08-23T10:11:53.497Z,71
2022-08-23T10:15:18.731Z,71
2022-08-23T10:18:43.967Z,69
2022-08-23T10:22:09.195Z,68
2022-08-23T10:25:34.422Z,69
2022-08-23T10:28:59.661Z,66
2022-08-23T10:32:24.913Z,67
2022-08-23T10:35:50.166Z,68
2022-08-23T10:39:15.394Z,66
2022-08-23T10:42:40.625Z,68
2022-08-23T10:46:05.874Z,67
2022-08-23T10:49:31.095Z,67
2022-08-23T10:52:56.360Z,66
2022-08-23T10:56:21.608Z,67
2022-08-23T10:59:46.915Z,66
2022-08-23T11:03:13.200Z,66
2022-08-23T11:06:39.239Z,66
2022-08-23T11:10:04.514Z,65
2022-08-23T11:13:29.756Z,66
2022-08-23T11:16:54.998Z,65
2022-08-23T11:20:20.286Z,66
2022-08-23T11:23:45.523Z,65
2022-08-23T11:27:15.467Z,65
2022-08-23T11:30:41.666Z,65
2022-08-23T11:34:06.865Z,64
2022-08-23T11:37:32.115Z,66
2022-08-23T11:40:57.341Z,66
2022-08-23T11:44:22.577Z,65
2022-08-23T11:47:47.815Z,66
2022-08-23T11:51:13.071Z,65
2022-08-23T11:54:38.285Z,63
2022-08-23T11:58:03.640Z,62
2022-08-23T12:01:28.751Z,63
2022-08-23T12:04:53.986Z,62
2022-08-23T12:08:19.215Z,62
2022-08-23T12:11:44.958Z,62
2022-08-23T12:15:10.203Z,61
2022-08-23T12:18:35.466Z,61
2022-08-23T12:22:00.694Z,62
2022-08-23T12:25:25.984Z,60
2022-08-23T12:28:51.209Z,60
2022-08-23T12:32:16.429Z,60
2022-08-23T12:35:41.669Z,59
2022-08-23T12:39:07.048Z,60
2022-08-23T12:42:32.266Z,60
2022-08-23T12:45:57.609Z,59
2022-08-23T12:49:22.790Z,59
2022-08-23T12:52:48.010Z,60
2022-08-23T12:56:13.247Z,60
2022-08-23T12:59:38.463Z,60
2022-08-23T13:03:03.860Z,60
2022-08-23T13:06:28.945Z,59
2022-08-23T13:09:55.513Z,60
2022-08-23T13:13:19.989Z,60
2022-08-23T13:16:45.236Z,61
2022-08-23T13:20:10.484Z,61
2022-08-23T13:23:35.708Z,60
2022-08-23T13:27:00.926Z,60
2022-08-23T13:30:26.173Z,59
2022-08-23T13:33:51.408Z,60
2022-08-23T13:37:16.612Z,60
2022-08-23T13:40:41.849Z,60
2022-08-23T13:44:07.085Z,62
2022-08-23T13:47:32.320Z,60
2022-08-23T13:50:57.554Z,60
2022-08-23T13:54:22.801Z,60
2022-08-23T13:57:48.024Z,60
2022-08-23T14:01:13.298Z,59
2022-08-23T14:04:38.556Z,62
2022-08-23T14:08:03.709Z,63
2022-08-23T14:11:28.975Z,60
2022-08-23T14:14:54.217Z,60
2022-08-23T14:18:19.446Z,60
2022-08-23T14:21:44.692Z,62
2022-08-23T14:25:09.919Z,62
2022-08-23T14:28:35.156Z,62
2022-08-23T15:05:32.443Z,66
2022-08-23T15:08:57.636Z,65
2022-08-23T15:15:49.134Z,65
2022-08-23T15:19:13.341Z,64
2022-08-23T15:22:39.894Z,64
2022-08-23T15:26:03.769Z,65
2022-08-23T15:29:29.014Z,65
2022-08-23T15:32:56.297Z,65
2022-08-23T15:36:19.471Z,64
2022-08-23T15:39:44.785Z,63
2022-08-23T15:43:09.959Z,64
2022-08-23T15:46:35.184Z,64
2022-08-23T15:50:00.436Z,64
2022-08-23T15:53:25.677Z,64
2022-08-23T15:56:52.726Z,63
2022-08-23T16:00:18.030Z,63
2022-08-23T16:03:43.331Z,63
2022-08-23T16:07:08.618Z,63
2022-08-23T16:10:33.939Z,64
2022-08-23T16:13:59.266Z,64
2022-08-23T16:17:24.497Z,64
2022-08-23T16:20:49.719Z,63
2022-08-23T16:24:14.964Z,64
2022-08-23T16:27:40.196Z,64
2022-08-23T16:31:05.438Z,64
2022-08-23T16:34:30.633Z,65
2022-08-23T16:37:55.863Z,65
2022-08-23T16:41:21.114Z,65
2022-08-23T16:44:46.326Z,65
2022-08-23T16:48:14.655Z,65
2022-08-23T16:51:36.780Z,65
2022-08-23T16:55:02.013Z,65
2022-08-23T16:58:27.250Z,65
2022-08-23T17:01:52.504Z,65
2022-08-23T17:05:17.693Z,65
2022-08-23T17:08:42.921Z,66
2022-08-23T17:12:08.148Z,66
2022-08-23T17:15:33.372Z,66
2022-08-23T17:18:58.594Z,66
2022-08-23T17:22:23.835Z,67
2022-08-23T17:25:49.073Z,67
2022-08-23T17:29:14.360Z,67
2022-08-23T17:32:39.784Z,67
2022-08-23T17:36:05.167Z,67
2022-08-23T17:39:46.534Z,68
2022-08-23T17:43:22.893Z,68
2022-08-23T17:46:48.173Z,68
2022-08-23T17:50:13.583Z,68
2022-08-23T17:53:38.883Z,68
2022-08-23T17:57:04.864Z,69
2022-08-23T18:00:29.552Z,69
2022-08-23T18:03:54.781Z,69
2022-08-23T18:07:20.049Z,70
2022-08-23T18:10:45.306Z,69
2022-08-23T18:14:10.552Z,70
2022-08-23T18:17:35.823Z,71
2022-08-23T18:21:01.058Z,71
2022-08-23T18:24:26.388Z,72
2022-08-23T18:27:51.675Z,73
2022-08-23T18:31:23.294Z,73
2022-08-23T18:34:48.472Z,73
2022-08-23T18:38:13.711Z,75
2022-08-23T18:41:38.984Z,75
2022-08-23T18:45:04.227Z,75
2022-08-23T18:48:29.469Z,76
2022-08-23T18:51:54.730Z,76
2022-08-23T18:55:19.980Z,77
2022-08-23T18:58:45.193Z,78
2022-08-23T19:02:10.551Z,78
2022-08-23T19:05:41.460Z,78
2022-08-23T19:09:01.027Z,79
2022-08-23T19:12:26.272Z,78
2022-08-23T19:15:51.530Z,78
2022-08-23T19:19:16.784Z,78
2022-08-23T19:22:42.069Z,78
2022-08-23T19:26:09.775Z,78
2022-08-23T19:29:32.573Z,79
2022-08-23T19:32:57.934Z,79
2022-08-23T19:36:43.007Z,79
2022-08-23T19:39:48.371Z,79
2022-08-23T19:43:13.573Z,80
2022-08-23T19:46:38.798Z,79
2022-08-23T19:50:04.072Z,79
2022-08-23T19:53:29.344Z,80
2022-08-23T19:56:54.583Z,80
2022-08-23T20:00:20.017Z,80
2022-08-23T20:03:45.170Z,80
2022-08-23T20:07:10.428Z,81
2022-08-23T20:10:35.725Z,81
2022-08-23T20:14:00.979Z,81
2022-08-23T20:17:26.226Z,81
2022-08-23T20:20:51.479Z,81
2022-08-23T20:24:16.718Z,81
2022-08-23T20:27:41.976Z,82
2022-08-23T20:31:07.246Z,82
2022-08-23T20:34:32.459Z,82
2022-08-23T20:37:57.796Z,82
2022-08-23T20:41:22.980Z,83
2022-08-23T20:44:48.234Z,83
2022-08-23T20:48:13.487Z,83
2022-08-23T20:51:38.752Z,84
2022-08-23T20:55:04.025Z,83
2022-08-23T20:58:29.273Z,83
2022-08-23T21:01:54.579Z,83
2022-08-23T21:05:19.766Z,83
2022-08-23T21:08:45.004Z,81
2022-08-23T21:12:10.261Z,82
2022-08-23T21:15:35.485Z,83
2022-08-23T21:19:00.726Z,83
2022-08-23T21:22:30.306Z,84
2022-08-23T21:25:51.215Z,84
2022-08-23T21:29:16.449Z,83
2022-08-23T21:32:41.730Z,83
2022-08-23T21:36:06.993Z,83
2022-08-23T21:39:32.234Z,84
2022-08-23T21:42:57.501Z,84
2022-08-23T21:46:22.837Z,84
2022-08-23T21:49:48.023Z,84
2022-08-23T21:53:13.257Z,84
2022-08-23T21:56:38.494Z,84
2022-08-23T22:00:03.723Z,84
2022-08-23T22:03:28.955Z,84
2022-08-23T22:06:55.919Z,84
2022-08-23T22:10:19.421Z,83
2022-08-23T22:13:44.652Z,83
2022-08-23T22:17:09.913Z,83
2022-08-23T22:20:35.162Z,84
2022-08-23T22:24:00.387Z,84
2022-08-23T22:27:25.644Z,84
2022-08-23T22:30:50.881Z,84
2022-08-23T22:34:16.078Z,84
2022-08-23T22:37:53.808Z,84
2022-08-23T22:41:06.547Z,84
2022-08-23T22:44:31.780Z,85
2022-08-23T22:47:57.092Z,84
2022-08-23T22:51:22.275Z,84
2022-08-23T22:54:47.535Z,84
2022-08-23T22:58:12.760Z,85
2022-08-23T23:01:38.064Z,85
2022-08-23T23:05:03.222Z,85
2022-08-23T23:08:28.486Z,85
2022-08-23T23:11:53.717Z,84
2022-08-23T23:15:18.960Z,85
2022-08-23T23:18:44.202Z,85
2022-08-23T23:22:09.455Z,85
2022-08-23T23:25:34.701Z,85
2022-08-23T23:28:59.917Z,85
2022-08-23T23:32:25.162Z,84
2022-08-23T23:35:50.367Z,84
2022-08-23T23:39:15.593Z,85
2022-08-23T23:42:40.832Z,85
2022-08-23T23:46:06.142Z,85
2022-08-23T23:49:32.139Z,85
2022-08-23T23:52:56.561Z,85
2022-08-23T23:56:21.788Z,84
2022-08-23T23:59:47.020Z,85
